Time;durP1;ratioP1;P1;durP2;ratioP2;P2;SDS_P1;SDS_P2;PMS_P1;PMS_P2;Temp;Humidity;BMP_temperature;BMP_pressure;BME280_temperature;BME280_humidity;BME280_pressure;Samples;Min_cycle;Max_cycle;Signal;HPM_P1;HPM_P2
2022/05/01 00:01:43;;;;;;;0.10;0.10;;;;;;;;;;5114621;27;20258;-83
2022/05/01 00:04:09;;;;;;;0.10;0.10;;;;;;;;;;5107582;28;20537;-83
2022/05/01 00:06:37;;;;;;;0.10;0.10;;;;;;;;;;5113695;27;20244;-84
2022/05/01 00:09:04;;;;;;;0.10;0.10;;;;;;;;;;5107208;28;20198;-84
2022/05/01 00:11:31;;;;;;;0.10;0.10;;;;;;;;;;5112404;27;20241;-83
2022/05/01 00:13:58;;;;;;;0.10;0.10;;;;;;;;;;5107201;28;20218;-83
2022/05/01 00:16:24;;;;;;;0.10;0.10;;;;;;;;;;5096208;28;20241;-83
2022/05/01 00:18:51;;;;;;;0.10;0.10;;;;;;;;;;5097020;28;20210;-82
2022/05/01 00:21:17;;;;;;;0.10;0.10;;;;;;;;;;5094853;28;20253;-84
2022/05/01 00:23:45;;;;;;;0.10;0.10;;;;;;;;;;5098532;28;20225;-83
2022/05/01 00:26:12;;;;;;;0.10;0.10;;;;;;;;;;5093098;28;20311;-82
2022/05/01 00:28:39;;;;;;;0.10;0.10;;;;;;;;;;5099777;28;20204;-81
2022/05/01 00:31:06;;;;;;;0.10;0.10;;;;;;;;;;5091546;28;20249;-83
2022/05/01 00:36:28;;;;;;;0.10;0.10;;;;;;;;;;5094089;28;20465;-82
2022/05/01 00:38:56;;;;;;;0.10;0.10;;;;;;;;;;5095893;28;20233;-82
2022/05/01 00:41:23;;;;;;;0.10;0.10;;;;;;;;;;5096236;28;20515;-83
2022/05/01 00:43:56;;;;;;;0.10;0.10;;;;;;;;;;5096325;28;20536;-81
2022/05/01 00:46:23;;;;;;;0.10;0.10;;;;;;;;;;5095781;28;20514;-83
2022/05/01 00:48:50;;;;;;;0.10;0.10;;;;;;;;;;5096646;28;20210;-83
2022/05/01 00:51:16;;;;;;;0.10;0.10;;;;;;;;;;5094066;28;20560;-83
2022/05/01 00:53:43;;;;;;;0.10;0.10;;;;;;;;;;5097815;28;20272;-82
2022/05/01 00:56:13;;;;;;;0.10;0.10;;;;;;;;;;5092175;28;20264;-82
2022/05/01 00:58:40;;;;;;;0.10;0.10;;;;;;;;;;5099399;28;20260;-83
2022/05/01 01:01:06;;;;;;;0.10;0.10;;;;;;;;;;5090931;28;20240;-83
2022/05/01 01:03:32;;;;;;;0.10;0.10;;;;;;;;;;5100975;28;20314;-82
2022/05/01 01:05:59;;;;;;;0.10;0.10;;;;;;;;;;5088788;28;20263;-82
2022/05/01 01:08:25;;;;;;;0.10;0.10;;;;;;;;;;5103060;28;20210;-83
2022/05/01 01:10:52;;;;;;;0.10;0.10;;;;;;;;;;5086867;28;20244;-83
2022/05/01 01:13:27;;;;;;;0.10;0.10;;;;;;;;;;5104440;28;20209;-83
2022/05/01 01:15:54;;;;;;;0.80;0.80;;;;;;;;;;5087437;28;20237;-82
2022/05/01 01:18:20;;;;;;;0.10;0.10;;;;;;;;;;5104167;28;20248;-83
2022/05/01 01:20:48;;;;;;;0.10;0.10;;;;;;;;;;5085691;28;20252;-83
2022/05/01 01:23:15;;;;;;;0.10;0.10;;;;;;;;;;5105378;28;20251;-83
2022/05/01 01:25:41;;;;;;;0.10;0.10;;;;;;;;;;5083526;28;20291;-83
2022/05/01 01:28:08;;;;;;;0.10;0.10;;;;;;;;;;5106843;28;20213;-82
2022/05/01 01:33:19;;;;;;;0.10;0.10;;;;;;;;;;5104014;28;20220;-82
2022/05/01 01:35:47;;;;;;;0.10;0.10;;;;;;;;;;5084988;28;20271;-82
2022/05/01 01:38:16;;;;;;;0.10;0.10;;;;;;;;;;5105232;28;20212;-83
2022/05/01 01:40:45;;;;;;;0.10;0.10;;;;;;;;;;5083662;28;20318;-83
2022/05/01 01:43:12;;;;;;;0.10;0.10;;;;;;;;;;5105519;28;20207;-83
2022/05/01 01:45:38;;;;;;;0.10;0.10;;;;;;;;;;5082631;28;20486;-84
2022/05/01 01:48:11;;;;;;;0.10;0.10;;;;;;;;;;5107716;28;20204;-83
2022/05/01 01:50:38;;;;;;;0.10;0.10;;;;;;;;;;5082544;28;20255;-83
2022/05/01 01:53:04;;;;;;;0.10;0.10;;;;;;;;;;5107512;28;20197;-82
2022/05/01 01:55:32;;;;;;;0.10;0.10;;;;;;;;;;5080146;28;20241;-82
2022/05/01 01:57:59;;;;;;;0.10;0.10;;;;;;;;;;5109220;28;20210;-83
2022/05/01 02:00:25;;;;;;;0.10;0.10;;;;;;;;;;5079171;28;20253;-82
2022/05/01 02:02:57;;;;;;;0.10;0.10;;;;;;;;;;5110559;28;20264;-82
2022/05/01 02:05:23;;;;;;;0.10;0.10;;;;;;;;;;5078079;28;20444;-82
2022/05/01 02:07:49;;;;;;;0.30;0.30;;;;;;;;;;5111575;28;20182;-83
2022/05/01 02:10:16;;;;;;;0.10;0.10;;;;;;;;;;5076190;28;20288;-82
2022/05/01 02:12:43;;;;;;;0.10;0.10;;;;;;;;;;5113182;28;20200;-82
2022/05/01 02:15:10;;;;;;;0.10;0.10;;;;;;;;;;5074311;28;20210;-82
2022/05/01 02:17:37;;;;;;;0.10;0.10;;;;;;;;;;5115006;28;20266;-80
2022/05/01 02:20:04;;;;;;;0.10;0.10;;;;;;;;;;5083640;28;20504;-81
2022/05/01 02:22:30;;;;;;;0.10;0.10;;;;;;;;;;5105648;28;20298;-83
2022/05/01 02:24:56;;;;;;;0.10;0.10;;;;;;;;;;5083237;28;20289;-84
2022/05/01 02:27:23;;;;;;;0.10;0.10;;;;;;;;;;5105636;28;20248;-83
2022/05/01 02:29:50;;;;;;;0.10;0.10;;;;;;;;;;5083156;28;20563;-83
2022/05/01 02:32:17;;;;;;;0.10;0.10;;;;;;;;;;5105481;28;20236;-83
2022/05/01 02:34:43;;;;;;;0.10;0.10;;;;;;;;;;5083091;28;20266;-81
2022/05/01 02:37:09;;;;;;;0.10;0.10;;;;;;;;;;5105207;28;20377;-82
2022/05/01 02:39:36;;;;;;;0.10;0.10;;;;;;;;;;5082937;28;20215;-82
2022/05/01 02:42:04;;;;;;;0.10;0.10;;;;;;;;;;5104319;28;20245;-82
2022/05/01 02:44:30;;;;;;;0.10;0.10;;;;;;;;;;5083527;28;20294;-81
2022/05/01 02:46:58;;;;;;;0.10;0.10;;;;;;;;;;5102800;28;20301;-79
2022/05/01 02:49:25;;;;;;;0.10;0.10;;;;;;;;;;5084995;28;20201;-81
2022/05/01 02:51:53;;;;;;;0.10;0.10;;;;;;;;;;5101242;28;20268;-80
2022/05/01 02:54:19;;;;;;;0.10;0.10;;;;;;;;;;5086474;28;20515;-81
2022/05/01 02:56:47;;;;;;;0.10;0.10;;;;;;;;;;5099844;28;20249;-80
2022/05/01 02:59:16;;;;;;;0.10;0.10;;;;;;;;;;5087238;28;20266;-82
2022/05/01 03:01:43;;;;;;;0.10;0.10;;;;;;;;;;5098641;28;20237;-81
2022/05/01 03:04:10;;;;;;;0.10;0.10;;;;;;;;;;5089063;28;20266;-81
2022/05/01 03:06:37;;;;;;;0.10;0.10;;;;;;;;;;5096819;28;20625;-81
2022/05/01 03:09:03;;;;;;;0.10;0.10;;;;;;;;;;5090730;28;20203;-80
2022/05/01 03:11:32;;;;;;;0.10;0.10;;;;;;;;;;5095411;28;20245;-81
2022/05/01 03:13:59;;;;;;;0.10;0.10;;;;;;;;;;5091511;28;20526;-81
2022/05/01 03:16:25;;;;;;;0.10;0.10;;;;;;;;;;5093956;28;20245;-81
2022/05/01 03:24:28;;;;;;;0.10;0.10;;;;;;;;;;5082934;28;20223;-82
2022/05/01 03:26:55;;;;;;;0.10;0.10;;;;;;;;;;5101841;28;20248;-83
2022/05/01 03:29:21;;;;;;;0.10;0.10;;;;;;;;;;5085102;28;20216;-81
2022/05/01 03:31:48;;;;;;;0.10;0.10;;;;;;;;;;5100017;28;20244;-83
2022/05/01 03:34:14;;;;;;;0.10;0.10;;;;;;;;;;5087219;28;20199;-82
2022/05/01 03:36:45;;;;;;;0.10;0.10;;;;;;;;;;5098054;28;20248;-82
2022/05/01 03:39:11;;;;;;;0.10;0.10;;;;;;;;;;5088312;28;20339;-82
2022/05/01 03:41:39;;;;;;;0.10;0.10;;;;;;;;;;5097358;28;20313;-83
2022/05/01 03:44:07;;;;;;;0.10;0.10;;;;;;;;;;5089333;28;20286;-83
2022/05/01 03:46:34;;;;;;;0.10;0.10;;;;;;;;;;5096273;28;20257;-82
2022/05/01 03:49:00;;;;;;;0.10;0.10;;;;;;;;;;5091195;28;20361;-81
2022/05/01 03:51:26;;;;;;;0.10;0.10;;;;;;;;;;5097776;28;20260;-81
2022/05/01 03:53:54;;;;;;;0.10;0.10;;;;;;;;;;5096364;28;20206;-82
2022/05/01 03:56:20;;;;;;;0.10;0.10;;;;;;;;;;5095437;28;20318;-82
2022/05/01 03:58:46;;;;;;;0.10;0.10;;;;;;;;;;5098514;28;20203;-82
2022/05/01 04:01:13;;;;;;;0.10;0.10;;;;;;;;;;5093823;28;20486;-81
2022/05/01 04:03:40;;;;;;;0.10;0.10;;;;;;;;;;5099822;28;20275;-82
2022/05/01 04:06:07;;;;;;;0.10;0.10;;;;;;;;;;5091342;28;20238;-83
2022/05/01 04:08:33;;;;;;;0.10;0.10;;;;;;;;;;5102724;28;20203;-82
2022/05/01 04:11:02;;;;;;;0.10;0.10;;;;;;;;;;5090102;28;20487;-82
2022/05/01 04:13:28;;;;;;;0.10;0.10;;;;;;;;;;5103029;28;20299;-83
2022/05/01 04:15:55;;;;;;;0.10;0.10;;;;;;;;;;5088874;28;20236;-81
2022/05/01 04:18:22;;;;;;;0.10;0.10;;;;;;;;;;5104835;28;20222;-82
2022/05/01 04:20:48;;;;;;;0.10;0.10;;;;;;;;;;5087020;28;20249;-81
2022/05/01 04:23:14;;;;;;;0.10;0.10;;;;;;;;;;5106498;28;20203;-82
2022/05/01 04:25:41;;;;;;;0.10;0.10;;;;;;;;;;5084548;28;20246;-82
2022/05/01 04:28:09;;;;;;;0.10;0.10;;;;;;;;;;5108256;28;20215;-82
2022/05/01 04:30:36;;;;;;;0.10;0.10;;;;;;;;;;5083756;28;20237;-81
2022/05/01 04:33:04;;;;;;;0.10;0.10;;;;;;;;;;5109465;28;20203;-82
2022/05/01 04:35:31;;;;;;;0.10;0.10;;;;;;;;;;5082482;28;20265;-82
2022/05/01 04:38:00;;;;;;;0.10;0.10;;;;;;;;;;5110444;28;20199;-82
2022/05/01 04:40:27;;;;;;;0.10;0.10;;;;;;;;;;5080663;28;20276;-82
2022/05/01 04:42:54;;;;;;;0.10;0.10;;;;;;;;;;5111766;28;20218;-82
2022/05/01 04:45:22;;;;;;;0.10;0.10;;;;;;;;;;5079106;28;20298;-81
2022/05/01 04:47:51;;;;;;;0.10;0.10;;;;;;;;;;5113097;28;20203;-81
2022/05/01 04:50:19;;;;;;;0.10;0.10;;;;;;;;;;5078110;28;20237;-81
2022/05/01 04:52:45;;;;;;;0.10;0.10;;;;;;;;;;5113988;28;20192;-82
2022/05/01 04:55:12;;;;;;;0.10;0.10;;;;;;;;;;5076484;28;20214;-82
2022/05/01 04:57:38;;;;;;;0.10;0.10;;;;;;;;;;5115414;28;20475;-83
2022/05/01 05:00:05;;;;;;;0.10;0.10;;;;;;;;;;5085234;28;20547;-80
2022/05/01 05:02:41;;;;;;;0.10;0.10;;;;;;;;;;5073040;28;20551;-80
2022/05/01 05:05:08;;;;;;;0.10;0.10;;;;;;;;;;5075147;28;20234;-81
2022/05/01 05:07:36;;;;;;;0.10;0.10;;;;;;;;;;5099830;28;20205;-81
2022/05/01 05:10:01;;;;;;;0.10;0.10;;;;;;;;;;5084871;28;20210;-82
2022/05/01 05:12:28;;;;;;;0.10;0.10;;;;;;;;;;5107176;28;20573;-80
2022/05/01 05:14:59;;;;;;;3.50;3.40;;;;;;;;;;5084503;28;20211;-82
2022/05/01 05:17:25;;;;;;;0.10;0.10;;;;;;;;;;5107140;28;20247;-81
2022/05/01 05:19:53;;;;;;;0.10;0.10;;;;;;;;;;5084636;28;20204;-81
2022/05/01 05:22:19;;;;;;;0.10;0.10;;;;;;;;;;5106901;28;20525;-81
2022/05/01 05:24:47;;;;;;;0.10;0.10;;;;;;;;;;5084330;28;20231;-81
2022/05/01 05:27:13;;;;;;;0.10;0.10;;;;;;;;;;5106578;28;20472;-81
2022/05/01 05:29:40;;;;;;;0.10;0.10;;;;;;;;;;5084195;28;20437;-82
2022/05/01 05:32:07;;;;;;;0.10;0.10;;;;;;;;;;5106450;28;20247;-82
2022/05/01 05:34:34;;;;;;;0.10;0.10;;;;;;;;;;5084487;28;20199;-81
2022/05/01 05:37:01;;;;;;;0.10;0.10;;;;;;;;;;5105206;28;20242;-82
2022/05/01 05:39:28;;;;;;;0.10;0.10;;;;;;;;;;5085203;28;20228;-81
2022/05/01 05:41:54;;;;;;;0.10;0.10;;;;;;;;;;5103653;28;20266;-81
2022/05/01 05:44:21;;;;;;;0.10;0.10;;;;;;;;;;5087047;28;20229;-80
2022/05/01 05:46:47;;;;;;;0.10;0.10;;;;;;;;;;5101177;28;20432;-82
2022/05/01 05:49:14;;;;;;;0.10;0.10;;;;;;;;;;5088635;28;20216;-80
2022/05/01 05:51:40;;;;;;;0.10;0.10;;;;;;;;;;5098852;28;20242;-81
2022/05/01 05:54:07;;;;;;;0.10;0.10;;;;;;;;;;5090722;28;20245;-82
2022/05/01 05:56:34;;;;;;;0.10;0.10;;;;;;;;;;5097714;28;20623;-81
2022/05/01 05:59:00;;;;;;;0.10;0.10;;;;;;;;;;5091780;28;20216;-82
2022/05/01 06:01:26;;;;;;;0.10;0.10;;;;;;;;;;5094670;28;20234;-81
2022/05/01 06:03:53;;;;;;;0.10;0.10;;;;;;;;;;5095153;28;20214;-82
2022/05/01 06:06:19;;;;;;;0.10;0.10;;;;;;;;;;5093502;28;20252;-82
2022/05/01 06:08:46;;;;;;;0.10;0.10;;;;;;;;;;5095623;28;20199;-81
2022/05/01 06:11:14;;;;;;;0.10;0.10;;;;;;;;;;5091494;28;20244;-80
2022/05/01 06:13:40;;;;;;;0.10;0.10;;;;;;;;;;5096521;28;20498;-82
2022/05/01 06:16:06;;;;;;;0.20;0.20;;;;;;;;;;5089792;28;20230;-82
2022/05/01 06:18:33;;;;;;;0.10;0.10;;;;;;;;;;5098949;28;20195;-80
2022/05/01 06:20:59;;;;;;;0.10;0.10;;;;;;;;;;5087702;28;20264;-81
2022/05/01 06:23:26;;;;;;;0.10;0.10;;;;;;;;;;5101087;28;20236;-81
2022/05/01 06:25:55;;;;;;;0.10;0.10;;;;;;;;;;5085591;28;20236;-81
2022/05/01 06:28:23;;;;;;;0.10;0.10;;;;;;;;;;5091699;28;20225;-81
2022/05/01 06:30:50;;;;;;;0.10;0.10;;;;;;;;;;5084578;28;20551;-82
2022/05/01 06:33:17;;;;;;;0.10;0.10;;;;;;;;;;5103404;28;20203;-81
2022/05/01 06:35:44;;;;;;;0.10;0.10;;;;;;;;;;5083539;28;20262;-82
2022/05/01 06:38:11;;;;;;;0.10;0.10;;;;;;;;;;5104953;28;20241;-81
2022/05/01 06:40:38;;;;;;;0.10;0.10;;;;;;;;;;5081178;28;20243;-82
2022/05/01 06:43:05;;;;;;;0.10;0.10;;;;;;;;;;5106034;28;20279;-81
2022/05/01 06:45:33;;;;;;;0.10;0.10;;;;;;;;;;5079612;28;20242;-82
2022/05/01 06:48:01;;;;;;;0.10;0.10;;;;;;;;;;5108479;28;20459;-83
2022/05/01 06:50:27;;;;;;;0.10;0.10;;;;;;;;;;5078530;28;20252;-82
2022/05/01 06:52:53;;;;;;;0.10;0.10;;;;;;;;;;5109493;28;20211;-81
2022/05/01 06:55:21;;;;;;;0.10;0.10;;;;;;;;;;5076466;28;20202;-81
2022/05/01 06:57:48;;;;;;;0.10;0.10;;;;;;;;;;5110911;28;20208;-81
2022/05/01 07:00:15;;;;;;;0.10;0.10;;;;;;;;;;5074955;28;20533;-81
2022/05/01 07:02:46;;;;;;;0.00;0.00;;;;;;;;;;5112531;28;20207;-72
2022/05/01 07:05:12;;;;;;;0.10;0.10;;;;;;;;;;5073977;28;20373;-70
2022/05/01 07:07:38;;;;;;;0.00;0.00;;;;;;;;;;5113352;28;20211;-70
2022/05/01 07:10:05;;;;;;;0.00;0.00;;;;;;;;;;5082755;28;20518;-71
2022/05/01 07:12:31;;;;;;;0.10;0.10;;;;;;;;;;5105059;28;20439;-71
2022/05/01 07:14:57;;;;;;;0.10;0.10;;;;;;;;;;5082718;28;20393;-71
2022/05/01 07:17:24;;;;;;;0.10;0.10;;;;;;;;;;5105219;28;20283;-74
2022/05/01 07:19:52;;;;;;;0.10;0.10;;;;;;;;;;5082940;28;20205;-71
2022/05/01 07:22:18;;;;;;;0.10;0.10;;;;;;;;;;5105090;28;20245;-74
2022/05/01 07:24:44;;;;;;;0.10;0.10;;;;;;;;;;5083589;28;20203;-70
2022/05/01 07:27:11;;;;;;;0.10;0.10;;;;;;;;;;5109031;28;20565;-70
2022/05/01 07:29:37;;;;;;;0.10;0.10;;;;;;;;;;5086381;28;20204;-71
2022/05/01 07:32:04;;;;;;;0.10;0.10;;;;;;;;;;5108025;28;20283;-71
2022/05/01 07:34:30;;;;;;;0.10;0.10;;;;;;;;;;5087128;28;20434;-79
2022/05/01 07:36:58;;;;;;;0.10;0.10;;;;;;;;;;5106622;28;20433;-70
2022/05/01 07:39:24;;;;;;;0.00;0.00;;;;;;;;;;5088553;28;20252;-72
2022/05/01 07:41:50;;;;;;;0.10;0.10;;;;;;;;;;5104790;28;20301;-67
2022/05/01 07:44:16;;;;;;;0.10;0.10;;;;;;;;;;5090358;28;20211;-71
2022/05/01 07:46:43;;;;;;;0.10;0.10;;;;;;;;;;5102525;28;20385;-71
2022/05/01 07:49:10;;;;;;;0.10;0.10;;;;;;;;;;5092437;28;20221;-73
2022/05/01 07:51:37;;;;;;;0.10;0.10;;;;;;;;;;5100533;28;20240;-72
2022/05/01 07:54:05;;;;;;;0.03;0.03;;;;;;;;;;5093735;28;20308;-73
2022/05/01 07:56:32;;;;;;;0.07;0.07;;;;;;;;;;5099244;28;20305;-73
2022/05/01 07:58:58;;;;;;;0.10;0.10;;;;;;;;;;5094794;28;20556;-73
2022/05/01 08:01:25;;;;;;;0.10;0.10;;;;;;;;;;5096922;28;20241;-73
2022/05/01 08:06:36;;;;;;;0.00;0.00;;;;;;;;;;5100101;28;20488;-73
2022/05/01 08:09:03;;;;;;;0.10;0.10;;;;;;;;;;5093647;28;20241;-73
2022/05/01 08:11:31;;;;;;;0.10;0.10;;;;;;;;;;5098296;28;20237;-73
2022/05/01 08:13:57;;;;;;;0.10;0.10;;;;;;;;;;5094975;28;20219;-73
2022/05/01 08:16:24;;;;;;;0.10;0.10;;;;;;;;;;5096181;28;20248;-71
2022/05/01 08:21:49;;;;;;;0.10;0.10;;;;;;;;;;5053357;28;20236;-73
2022/05/01 08:24:15;;;;;;;0.00;0.00;;;;;;;;;;5063730;28;20278;-74
2022/05/01 08:26:47;;;;;;;0.10;0.10;;;;;;;;;;5070944;28;20235;-75
2022/05/01 08:29:14;;;;;;;0.03;0.03;;;;;;;;;;5087925;28;20258;-75
2022/05/01 08:31:40;;;;;;;0.00;0.00;;;;;;;;;;5100700;28;20589;-74
2022/05/01 08:34:07;;;;;;;0.10;0.10;;;;;;;;;;5092777;28;20206;-73
2022/05/01 08:36:36;;;;;;;0.10;0.10;;;;;;;;;;5098337;28;20261;-73
2022/05/01 08:39:03;;;;;;;0.08;0.08;;;;;;;;;;5092903;28;20199;-73
2022/05/01 08:41:31;;;;;;;0.03;0.03;;;;;;;;;;5095175;28;20244;-74
2022/05/01 08:44:00;;;;;;;0.10;0.10;;;;;;;;;;5096717;28;20203;-72
2022/05/01 08:46:47;;;;;;;0.00;0.00;;;;;;;;;;5096639;28;20285;-69
2022/05/01 08:49:17;;;;;;;0.00;0.00;;;;;;;;;;5083486;28;20211;-71
2022/05/01 08:51:44;;;;;;;0.05;0.05;;;;;;;;;;5101348;28;20237;-73
2022/05/01 08:54:10;;;;;;;0.10;0.10;;;;;;;;;;5090861;28;20212;-71
2022/05/01 08:56:37;;;;;;;0.03;0.03;;;;;;;;;;5099218;28;20238;-72
2022/05/01 08:59:07;;;;;;;0.05;0.05;;;;;;;;;;5092330;28;20226;-70
2022/05/01 09:01:34;;;;;;;0.10;0.10;;;;;;;;;;5097493;28;20343;-77
2022/05/01 09:04:01;;;;;;;0.10;0.10;;;;;;;;;;5093448;28;20231;-69
2022/05/01 09:06:28;;;;;;;0.10;0.10;;;;;;;;;;5096719;28;20416;-71
2022/05/01 09:08:54;;;;;;;0.03;0.03;;;;;;;;;;5094766;28;20503;-70
2022/05/01 09:14:06;;;;;;;0.10;0.10;;;;;;;;;;5091520;28;20256;-71
2022/05/01 09:16:36;;;;;;;0.10;0.10;;;;;;;;;;5097563;28;20246;-71
2022/05/01 09:19:03;;;;;;;0.10;0.10;;;;;;;;;;5092888;28;20218;-75
2022/05/01 09:21:47;;;;;;;0.10;0.10;;;;;;;;;;5095433;28;20251;-73
2022/05/01 09:24:13;;;;;;;0.00;0.00;;;;;;;;;;5089352;28;20233;-70
2022/05/01 09:26:39;;;;;;;0.10;0.10;;;;;;;;;;5099563;28;20249;-69
2022/05/01 09:29:07;;;;;;;0.10;0.10;;;;;;;;;;5091348;28;20519;-73
2022/05/01 09:31:46;;;;;;;0.08;0.08;;;;;;;;;;5097718;28;20237;-70
2022/05/01 09:34:18;;;;;;;0.10;0.10;;;;;;;;;;5089431;28;20228;-70
2022/05/01 09:36:44;;;;;;;0.10;0.10;;;;;;;;;;5100775;28;20429;-74
2022/05/01 09:39:10;;;;;;;0.10;0.10;;;;;;;;;;5089531;28;20243;-72
2022/05/01 09:41:42;;;;;;;0.10;0.10;;;;;;;;;;5098837;28;20286;-70
2022/05/01 09:44:14;;;;;;;0.03;0.03;;;;;;;;;;5090404;28;20210;-71
2022/05/01 09:46:40;;;;;;;0.10;0.10;;;;;;;;;;5099609;28;20283;-69
2022/05/01 09:49:07;;;;;;;0.10;0.10;;;;;;;;;;5089727;28;20216;-70
2022/05/01 09:51:34;;;;;;;0.00;0.00;;;;;;;;;;5097588;28;20245;-69
2022/05/01 09:54:01;;;;;;;0.08;0.08;;;;;;;;;;5092301;28;20216;-69
2022/05/01 09:56:27;;;;;;;0.10;0.10;;;;;;;;;;5096122;28;20433;-68
2022/05/01 09:59:00;;;;;;;0.10;0.10;;;;;;;;;;5094094;28;20234;-69
2022/05/01 10:01:28;;;;;;;0.03;0.03;;;;;;;;;;5095568;28;20252;-69
2022/05/01 10:03:55;;;;;;;0.10;0.10;;;;;;;;;;5094051;28;20238;-68
2022/05/01 10:06:23;;;;;;;0.03;0.03;;;;;;;;;;5094334;28;20296;-67
2022/05/01 10:08:49;;;;;;;0.10;0.10;;;;;;;;;;5095097;28;20209;-68
2022/05/01 10:11:17;;;;;;;0.10;0.10;;;;;;;;;;5092278;28;20492;-68
2022/05/01 10:13:44;;;;;;;0.00;0.00;;;;;;;;;;5096567;28;20214;-70
2022/05/01 10:16:11;;;;;;;0.10;0.10;;;;;;;;;;5090287;28;20238;-69
2022/05/01 10:18:39;;;;;;;0.10;0.10;;;;;;;;;;5098807;28;20278;-70
2022/05/01 10:21:06;;;;;;;0.10;0.10;;;;;;;;;;5089561;28;20438;-70
2022/05/01 10:23:34;;;;;;;0.00;0.00;;;;;;;;;;5099654;28;20212;-71
2022/05/01 10:26:02;;;;;;;0.10;0.10;;;;;;;;;;5087990;28;20298;-69
2022/05/01 10:28:43;;;;;;;0.10;0.10;;;;;;;;;;5100340;28;20236;-70
2022/05/01 10:34:07;;;;;;;0.10;0.10;;;;;;;;;;5091589;28;20243;-69
2022/05/01 10:36:40;;;;;;;0.10;0.10;;;;;;;;;;5096402;28;20239;-69
2022/05/01 10:39:09;;;;;;;0.00;0.00;;;;;;;;;;5089439;28;20203;-69
2022/05/01 10:41:35;;;;;;;0.10;0.10;;;;;;;;;;5096904;28;20310;-70
2022/05/01 10:44:02;;;;;;;0.10;0.10;;;;;;;;;;5090771;28;20204;-70
2022/05/01 10:46:29;;;;;;;0.10;0.10;;;;;;;;;;5095430;28;20252;-70
2022/05/01 10:48:59;;;;;;;0.10;0.10;;;;;;;;;;5092392;28;20233;-70
2022/05/01 10:51:52;;;;;;;0.10;0.10;;;;;;;;;;5094135;28;20240;-69
2022/05/01 10:54:36;;;;;;;0.10;0.10;;;;;;;;;;5048637;28;20210;-70
2022/05/01 10:57:23;;;;;;;0.00;0.00;;;;;;;;;;5104301;28;20246;-69
2022/05/01 10:59:50;;;;;;;0.10;0.10;;;;;;;;;;5082933;28;20385;-70
2022/05/01 11:02:22;;;;;;;0.10;0.10;;;;;;;;;;5104960;28;20233;-69
2022/05/01 11:04:49;;;;;;;0.10;0.10;;;;;;;;;;5082589;28;20198;-70
2022/05/01 11:07:17;;;;;;;0.10;0.10;;;;;;;;;;5105002;28;20244;-69
2022/05/01 11:09:46;;;;;;;0.10;0.10;;;;;;;;;;5082910;28;20432;-68
2022/05/01 11:12:13;;;;;;;0.10;0.10;;;;;;;;;;5104997;28;20557;-69
2022/05/01 11:14:42;;;;;;;0.10;0.10;;;;;;;;;;5082522;28;20345;-70
2022/05/01 11:17:09;;;;;;;0.10;0.10;;;;;;;;;;5104853;28;20265;-70
2022/05/01 11:19:44;;;;;;;0.10;0.10;;;;;;;;;;5082605;28;20450;-69
2022/05/01 11:22:12;;;;;;;0.00;0.00;;;;;;;;;;5104807;28;20248;-70
2022/05/01 11:24:41;;;;;;;0.00;0.00;;;;;;;;;;5082612;28;20228;-69
2022/05/01 11:27:16;;;;;;;0.10;0.10;;;;;;;;;;5104780;28;20573;-69
2022/05/01 11:30:01;;;;;;;0.00;0.00;;;;;;;;;;5082220;28;20220;-69
2022/05/01 11:32:42;;;;;;;0.10;0.10;;;;;;;;;;5104685;28;20240;-70
2022/05/01 11:35:08;;;;;;;0.00;0.00;;;;;;;;;;5073190;28;20368;-69
2022/05/01 11:37:46;;;;;;;0.10;0.10;;;;;;;;;;5113840;28;20498;-69
2022/05/01 11:40:17;;;;;;;0.10;0.10;;;;;;;;;;5073359;28;20265;-69
2022/05/01 11:42:45;;;;;;;0.03;0.03;;;;;;;;;;5111901;28;20205;-69
2022/05/01 11:45:11;;;;;;;0.10;0.10;;;;;;;;;;5074050;28;20535;-69
2022/05/01 11:47:38;;;;;;;0.10;0.10;;;;;;;;;;5112838;28;20206;-70
2022/05/01 11:50:05;;;;;;;0.10;0.10;;;;;;;;;;5082497;28;20203;-70
2022/05/01 11:52:36;;;;;;;0.10;0.10;;;;;;;;;;5070647;28;20213;-68
2022/05/01 11:55:06;;;;;;;0.00;0.00;;;;;;;;;;5082236;28;20197;-69
2022/05/01 12:03:04;;;;;;;0.10;0.10;;;;;;;;;;5106952;28;20243;-70
2022/05/01 12:05:31;;;;;;;0.10;0.10;;;;;;;;;;5078908;28;20239;-69
2022/05/01 12:07:59;;;;;;;0.10;0.10;;;;;;;;;;5107281;28;20202;-69
2022/05/01 12:10:25;;;;;;;0.00;0.00;;;;;;;;;;5077587;28;20252;-71
2022/05/01 12:12:52;;;;;;;0.10;0.10;;;;;;;;;;5112480;28;20205;-70
2022/05/01 12:15:19;;;;;;;0.00;0.00;;;;;;;;;;5079087;28;20197;-70
2022/05/01 12:17:46;;;;;;;0.10;0.10;;;;;;;;;;5114474;28;20291;-70
2022/05/01 12:20:12;;;;;;;0.10;0.10;;;;;;;;;;5076459;28;20389;-69
2022/05/01 12:22:39;;;;;;;0.10;0.10;;;;;;;;;;5117057;28;20431;-68
2022/05/01 12:25:07;;;;;;;0.10;0.10;;;;;;;;;;5082137;28;20206;-69
2022/05/01 12:27:34;;;;;;;0.10;0.10;;;;;;;;;;5117055;28;20255;-68
2022/05/01 12:30:05;;;;;;;0.10;0.10;;;;;;;;;;5085869;28;20525;-69
2022/05/01 12:32:33;;;;;;;0.10;0.10;;;;;;;;;;5074156;28;20525;-69
2022/05/01 12:35:00;;;;;;;0.10;0.10;;;;;;;;;;5085497;28;20208;-68
2022/05/01 12:37:32;;;;;;;0.10;0.10;;;;;;;;;;5107405;28;20260;-69
2022/05/01 12:39:59;;;;;;;0.10;0.10;;;;;;;;;;5085333;28;20233;-71
2022/05/01 12:45:11;;;;;;;0.00;0.00;;;;;;;;;;5076363;28;20226;-70
2022/05/01 12:47:40;;;;;;;0.10;0.10;;;;;;;;;;5116003;28;20503;-70
2022/05/01 12:50:07;;;;;;;0.10;0.10;;;;;;;;;;5076777;28;20209;-71
2022/05/01 12:52:33;;;;;;;0.10;0.10;;;;;;;;;;5117057;28;20261;-70
2022/05/01 12:55:14;;;;;;;0.00;0.00;;;;;;;;;;5085201;28;20219;-71
2022/05/01 12:57:41;;;;;;;0.10;0.10;;;;;;;;;;5084735;28;20235;-69
2022/05/01 13:00:08;;;;;;;0.00;0.00;;;;;;;;;;5085708;28;20209;-70
2022/05/01 13:02:34;;;;;;;0.10;0.10;;;;;;;;;;5107374;28;20249;-69
2022/05/01 13:05:03;;;;;;;0.10;0.10;;;;;;;;;;5085159;28;20381;-71
2022/05/01 13:07:30;;;;;;;0.10;0.10;;;;;;;;;;5107457;28;20244;-69
2022/05/01 13:09:56;;;;;;;0.10;0.10;;;;;;;;;;5084930;28;20210;-70
2022/05/01 13:12:30;;;;;;;0.10;0.10;;;;;;;;;;5106735;28;20246;-71
2022/05/01 13:14:58;;;;;;;0.10;0.10;;;;;;;;;;5084805;28;20212;-71
2022/05/01 13:17:24;;;;;;;0.10;0.10;;;;;;;;;;5106797;28;20235;-70
2022/05/01 13:19:51;;;;;;;0.10;0.10;;;;;;;;;;5084688;28;20211;-70
2022/05/01 13:22:18;;;;;;;0.07;0.07;;;;;;;;;;5106574;28;20242;-69
2022/05/01 13:24:46;;;;;;;0.10;0.10;;;;;;;;;;5084479;28;20232;-70
2022/05/01 13:27:13;;;;;;;0.00;0.00;;;;;;;;;;5106519;28;20241;-70
2022/05/01 13:29:41;;;;;;;0.10;0.10;;;;;;;;;;5084597;28;20418;-69
2022/05/01 13:32:08;;;;;;;0.07;0.07;;;;;;;;;;5106325;28;20259;-69
2022/05/01 13:34:35;;;;;;;0.10;0.10;;;;;;;;;;5084272;28;20206;-69
2022/05/01 13:37:02;;;;;;;0.07;0.07;;;;;;;;;;5105314;28;20260;-69
2022/05/01 13:44:55;;;;;;;0.10;0.10;;;;;;;;;;5084823;28;20431;-67
2022/05/01 13:47:21;;;;;;;0.40;0.40;;;;;;;;;;5106541;28;20239;-68
2022/05/01 13:49:48;;;;;;;0.00;0.00;;;;;;;;;;5084571;28;20437;-68
2022/05/01 13:52:15;;;;;;;0.00;0.00;;;;;;;;;;5106672;28;20236;-69
2022/05/01 13:54:44;;;;;;;0.10;0.10;;;;;;;;;;5084138;28;20254;-68
2022/05/01 13:57:10;;;;;;;0.10;0.10;;;;;;;;;;5105178;28;20238;-69
2022/05/01 13:59:37;;;;;;;0.00;0.00;;;;;;;;;;5084407;28;20204;-69
2022/05/01 14:02:04;;;;;;;0.10;0.10;;;;;;;;;;5105183;28;20273;-69
2022/05/01 14:04:31;;;;;;;0.10;0.10;;;;;;;;;;5083558;28;20205;-69
2022/05/01 14:06:57;;;;;;;0.10;0.10;;;;;;;;;;5103427;28;20266;-69
2022/05/01 14:09:24;;;;;;;0.10;0.10;;;;;;;;;;5085515;28;20251;-69
2022/05/01 14:11:52;;;;;;;0.10;0.10;;;;;;;;;;5101368;28;20311;-72
2022/05/01 14:14:18;;;;;;;0.10;0.10;;;;;;;;;;5087225;28;20284;-70
2022/05/01 14:16:45;;;;;;;0.10;0.10;;;;;;;;;;5099996;28;20299;-70
2022/05/01 14:19:13;;;;;;;0.00;0.00;;;;;;;;;;5088431;28;20403;-69
2022/05/01 14:21:39;;;;;;;0.10;0.10;;;;;;;;;;5098321;28;20240;-69
2022/05/01 14:24:07;;;;;;;0.00;0.00;;;;;;;;;;5090479;28;20236;-69
2022/05/01 14:26:33;;;;;;;0.07;0.07;;;;;;;;;;5096606;28;20266;-69
2022/05/01 14:29:01;;;;;;;0.00;0.00;;;;;;;;;;5091974;28;20202;-69
2022/05/01 14:31:35;;;;;;;0.10;0.10;;;;;;;;;;5095497;28;20470;-69
2022/05/01 14:34:05;;;;;;;0.10;0.10;;;;;;;;;;5090772;28;20212;-69
2022/05/01 14:36:34;;;;;;;0.10;0.10;;;;;;;;;;5096074;28;20241;-68
2022/05/01 14:39:03;;;;;;;0.10;0.10;;;;;;;;;;5091178;28;20270;-69
2022/05/01 14:41:33;;;;;;;0.10;0.10;;;;;;;;;;5095816;28;20304;-69
2022/05/01 14:44:03;;;;;;;0.10;0.10;;;;;;;;;;5091400;28;20203;-70
2022/05/01 14:46:30;;;;;;;0.10;0.10;;;;;;;;;;5095735;28;20299;-69
2022/05/01 14:49:01;;;;;;;0.10;0.10;;;;;;;;;;5092312;28;20202;-69
2022/05/01 14:51:28;;;;;;;0.10;0.10;;;;;;;;;;5095097;28;20594;-68
2022/05/01 14:53:55;;;;;;;0.07;0.07;;;;;;;;;;5092620;28;20218;-69
2022/05/01 14:56:23;;;;;;;0.00;0.00;;;;;;;;;;5093162;28;20488;-70
2022/05/01 15:07:03;;;;;;;0.00;0.00;;;;;;;;;;5104460;28;20275;-69
2022/05/01 15:09:31;;;;;;;0.10;0.10;;;;;;;;;;5083091;28;20205;-68
2022/05/01 15:11:59;;;;;;;0.10;0.10;;;;;;;;;;5102888;28;20241;-69
2022/05/01 15:14:27;;;;;;;0.10;0.10;;;;;;;;;;5084523;28;20252;-69
2022/05/01 15:16:58;;;;;;;0.10;0.10;;;;;;;;;;5101842;28;20240;-69
2022/05/01 15:19:32;;;;;;;0.10;0.10;;;;;;;;;;5084684;28;20552;-69
2022/05/01 15:24:45;;;;;;;0.10;0.10;;;;;;;;;;5080949;28;20194;-68
2022/05/01 15:27:15;;;;;;;0.10;0.10;;;;;;;;;;5105078;28;20270;-70
2022/05/01 15:29:44;;;;;;;0.10;0.10;;;;;;;;;;5082855;28;20263;-70
2022/05/01 15:32:14;;;;;;;0.10;0.10;;;;;;;;;;5104772;28;20236;-69
2022/05/01 15:34:42;;;;;;;0.00;0.00;;;;;;;;;;5082461;28;20206;-68